sensor_id;sensor_type;location;lat;lon;timestamp;P1;P2;P0
49528;PMS5003;35423;37.320;-121.762;2023-12-22T00:02:13;12;12;
49528;PMS5003;35423;37.320;-121.762;2023-12-22T00:04:39;6;6;
49528;PMS5003;35423;37.320;-121.762;2023-12-22T00:07:06;3;3;
49528;PMS5003;35423;37.320;-121.762;2023-12-22T00:09:32;10;10;
49528;PMS5003;35423;37.320;-121.762;2023-12-22T00:11:57;13;11;
49528;PMS5003;35423;37.320;-121.762;2023-12-22T00:14:23;9;9;
49528;PMS5003;35423;37.320;-121.762;2023-12-22T00:16:50;8;8;
49528;PMS5003;35423;37.320;-121.762;2023-12-22T00:19:13;5;5;
49528;PMS5003;35423;37.320;-121.762;2023-12-22T00:21:43;13;13;
49528;PMS5003;35423;37.320;-121.762;2023-12-22T00:24:10;14;14;
49528;PMS5003;35423;37.320;-121.762;2023-12-22T00:26:37;7;7;
49528;PMS5003;35423;37.320;-121.762;2023-12-22T00:29:03;5;5;
49528;PMS5003;35423;37.320;-121.762;2023-12-22T00:31:29;9;9;
49528;PMS5003;35423;37.320;-121.762;2023-12-22T00:33:56;9;9;
49528;PMS5003;35423;37.320;-121.762;2023-12-22T00:36:21;8;8;
49528;PMS5003;35423;37.320;-121.762;2023-12-22T00:38:46;4;4;
49528;PMS5003;35423;37.320;-121.762;2023-12-22T00:41:13;11;11;
49528;PMS5003;35423;37.320;-121.762;2023-12-22T00:43:39;7;7;
49528;PMS5003;35423;37.320;-121.762;2023-12-22T00:46:07;12;12;
49528;PMS5003;35423;37.320;-121.762;2023-12-22T00:48:32;17;5;
49528;PMS5003;35423;37.320;-121.762;2023-12-22T00:50:58;12;12;
49528;PMS5003;35423;37.320;-121.762;2023-12-22T00:53:24;3;3;
49528;PMS5003;35423;37.320;-121.762;2023-12-22T00:55:55;7;7;
49528;PMS5003;35423;37.320;-121.762;2023-12-22T00:58:22;9;9;
49528;PMS5003;35423;37.320;-121.762;2023-12-22T01:00:47;7;7;
49528;PMS5003;35423;37.320;-121.762;2023-12-22T01:03:12;11;11;
49528;PMS5003;35423;37.320;-121.762;2023-12-22T01:05:39;8;8;
49528;PMS5003;35423;37.320;-121.762;2023-12-22T01:08:04;7;7;
49528;PMS5003;35423;37.320;-121.762;2023-12-22T01:10:29;12;12;
49528;PMS5003;35423;37.320;-121.762;2023-12-22T01:12:56;8;8;
49528;PMS5003;35423;37.320;-121.762;2023-12-22T01:15:22;3;3;
49528;PMS5003;35423;37.320;-121.762;2023-12-22T01:17:47;12;12;
49528;PMS5003;35423;37.320;-121.762;2023-12-22T01:20:15;1;1;
49528;PMS5003;35423;37.320;-121.762;2023-12-22T01:22:41;6;6;
49528;PMS5003;35423;37.320;-121.762;2023-12-22T01:25:07;11;11;
49528;PMS5003;35423;37.320;-121.762;2023-12-22T01:27:33;4;4;
49528;PMS5003;35423;37.320;-121.762;2023-12-22T01:30:07;9;9;
49528;PMS5003;35423;37.320;-121.762;2023-12-22T01:32:32;8;8;
49528;PMS5003;35423;37.320;-121.762;2023-12-22T01:34:57;4;4;
49528;PMS5003;35423;37.320;-121.762;2023-12-22T01:37:22;5;5;
49528;PMS5003;35423;37.320;-121.762;2023-12-22T01:39:49;4;4;
49528;PMS5003;35423;37.320;-121.762;2023-12-22T01:42:15;6;6;
49528;PMS5003;35423;37.320;-121.762;2023-12-22T01:44:41;3;3;
49528;PMS5003;35423;37.320;-121.762;2023-12-22T01:47:09;2;2;
49528;PMS5003;35423;37.320;-121.762;2023-12-22T01:49:35;5;5;
49528;PMS5003;35423;37.320;-121.762;2023-12-22T01:52:00;2;2;
49528;PMS5003;35423;37.320;-121.762;2023-12-22T01:54:26;5;5;
49528;PMS5003;35423;37.320;-121.762;2023-12-22T01:56:52;4;4;
49528;PMS5003;35423;37.320;-121.762;2023-12-22T01:59:17;6;6;
49528;PMS5003;35423;37.320;-121.762;2023-12-22T02:01:44;2;2;
49528;PMS5003;35423;37.320;-121.762;2023-12-22T02:04:12;4;4;
49528;PMS5003;35423;37.320;-121.762;2023-12-22T02:06:40;5;5;
49528;PMS5003;35423;37.320;-121.762;2023-12-22T02:09:06;7;7;
49528;PMS5003;35423;37.320;-121.762;2023-12-22T02:11:32;3;3;
49528;PMS5003;35423;37.320;-121.762;2023-12-22T02:13:57;4;4;
49528;PMS5003;35423;37.320;-121.762;2023-12-22T02:16:31;6;6;
49528;PMS5003;35423;37.320;-121.762;2023-12-22T02:18:52;4;4;
49528;PMS5003;35423;37.320;-121.762;2023-12-22T02:21:19;4;4;
49528;PMS5003;35423;37.320;-121.762;2023-12-22T02:23:47;3;3;
49528;PMS5003;35423;37.320;-121.762;2023-12-22T02:26:12;2;2;
49528;PMS5003;35423;37.320;-121.762;2023-12-22T02:28:39;4;4;
49528;PMS5003;35423;37.320;-121.762;2023-12-22T02:31:04;4;4;
49528;PMS5003;35423;37.320;-121.762;2023-12-22T02:33:28;2;2;
49528;PMS5003;35423;37.320;-121.762;2023-12-22T02:36:02;2;2;
49528;PMS5003;35423;37.320;-121.762;2023-12-22T02:38:29;1;1;
49528;PMS5003;35423;37.320;-121.762;2023-12-22T02:40:57;1;1;
49528;PMS5003;35423;37.320;-121.762;2023-12-22T02:43:22;4;4;
49528;PMS5003;35423;37.320;-121.762;2023-12-22T02:45:51;1;1;
49528;PMS5003;35423;37.320;-121.762;2023-12-22T02:48:21;4;4;
49528;PMS5003;35423;37.320;-121.762;2023-12-22T02:50:46;3;3;
49528;PMS5003;35423;37.320;-121.762;2023-12-22T02:53:12;2;2;
49528;PMS5003;35423;37.320;-121.762;2023-12-22T02:55:39;3;3;
49528;PMS5003;35423;37.320;-121.762;2023-12-22T02:58:07;2;2;
49528;PMS5003;35423;37.320;-121.762;2023-12-22T03:00:34;0;0;
49528;PMS5003;35423;37.320;-121.762;2023-12-22T03:03:00;2;2;
49528;PMS5003;35423;37.320;-121.762;2023-12-22T03:05:26;2;2;
49528;PMS5003;35423;37.320;-121.762;2023-12-22T03:07:54;1;1;
49528;PMS5003;35423;37.320;-121.762;2023-12-22T03:10:22;3;3;
49528;PMS5003;35423;37.320;-121.762;2023-12-22T03:12:50;1;1;
49528;PMS5003;35423;37.320;-121.762;2023-12-22T03:15:14;1;1;
49528;PMS5003;35423;37.320;-121.762;2023-12-22T03:17:41;2;2;
49528;PMS5003;35423;37.320;-121.762;2023-12-22T03:20:07;7;7;
49528;PMS5003;35423;37.320;-121.762;2023-12-22T03:22:32;1;1;
49528;PMS5003;35423;37.320;-121.762;2023-12-22T03:24:59;4;4;
49528;PMS5003;35423;37.320;-121.762;2023-12-22T03:27:27;4;4;
49528;PMS5003;35423;37.320;-121.762;2023-12-22T03:29:55;6;6;
49528;PMS5003;35423;37.320;-121.762;2023-12-22T03:32:21;2;2;
49528;PMS5003;35423;37.320;-121.762;2023-12-22T03:34:48;4;4;
49528;PMS5003;35423;37.320;-121.762;2023-12-22T03:37:14;9;9;
49528;PMS5003;35423;37.320;-121.762;2023-12-22T03:39:45;18;2;
49528;PMS5003;35423;37.320;-121.762;2023-12-22T03:42:11;7;4;
49528;PMS5003;35423;37.320;-121.762;2023-12-22T03:44:37;2;2;
49528;PMS5003;35423;37.320;-121.762;2023-12-22T03:47:04;3;3;
49528;PMS5003;35423;37.320;-121.762;2023-12-22T03:49:30;7;7;
49528;PMS5003;35423;37.320;-121.762;2023-12-22T03:51:56;4;4;
49528;PMS5003;35423;37.320;-121.762;2023-12-22T03:54:22;6;3;
49528;PMS5003;35423;37.320;-121.762;2023-12-22T03:56:49;5;5;
49528;PMS5003;35423;37.320;-121.762;2023-12-22T03:59:15;6;6;
49528;PMS5003;35423;37.320;-121.762;2023-12-22T04:01:41;7;7;
49528;PMS5003;35423;37.320;-121.762;2023-12-22T04:04:08;4;4;
49528;PMS5003;35423;37.320;-121.762;2023-12-22T04:06:37;7;7;
49528;PMS5003;35423;37.320;-121.762;2023-12-22T04:09:07;7;7;
49528;PMS5003;35423;37.320;-121.762;2023-12-22T04:11:42;2;2;
49528;PMS5003;35423;37.320;-121.762;2023-12-22T04:14:10;22;7;
49528;PMS5003;35423;37.320;-121.762;2023-12-22T04:16:36;6;6;
49528;PMS5003;35423;37.320;-121.762;2023-12-22T04:19:01;6;6;
49528;PMS5003;35423;37.320;-121.762;2023-12-22T04:21:26;4;4;
49528;PMS5003;35423;37.320;-121.762;2023-12-22T04:23:56;5;5;
49528;PMS5003;35423;37.320;-121.762;2023-12-22T04:26:22;5;5;
49528;PMS5003;35423;37.320;-121.762;2023-12-22T04:28:48;9;9;
49528;PMS5003;35423;37.320;-121.762;2023-12-22T04:31:14;9;4;
49528;PMS5003;35423;37.320;-121.762;2023-12-22T04:33:40;11;11;
49528;PMS5003;35423;37.320;-121.762;2023-12-22T04:36:06;7;7;
49528;PMS5003;35423;37.320;-121.762;2023-12-22T04:38:32;20;4;
49528;PMS5003;35423;37.320;-121.762;2023-12-22T04:41:01;1;1;
49528;PMS5003;35423;37.320;-121.762;2023-12-22T04:43:26;2;2;
49528;PMS5003;35423;37.320;-121.762;2023-12-22T04:45:59;3;3;
49528;PMS5003;35423;37.320;-121.762;2023-12-22T04:48:24;12;12;
49528;PMS5003;35423;37.320;-121.762;2023-12-22T04:50:55;7;7;
49528;PMS5003;35423;37.320;-121.762;2023-12-22T04:53:21;14;14;
49528;PMS5003;35423;37.320;-121.762;2023-12-22T04:55:48;8;8;
49528;PMS5003;35423;37.320;-121.762;2023-12-22T04:58:16;9;9;
49528;PMS5003;35423;37.320;-121.762;2023-12-22T05:00:44;11;11;
49528;PMS5003;35423;37.320;-121.762;2023-12-22T05:03:10;9;9;
49528;PMS5003;35423;37.320;-121.762;2023-12-22T05:05:36;13;13;
49528;PMS5003;35423;37.320;-121.762;2023-12-22T05:08:05;12;12;
49528;PMS5003;35423;37.320;-121.762;2023-12-22T05:10:31;11;11;
49528;PMS5003;35423;37.320;-121.762;2023-12-22T05:12:57;23;18;
49528;PMS5003;35423;37.320;-121.762;2023-12-22T05:15:24;13;13;
49528;PMS5003;35423;37.320;-121.762;2023-12-22T05:17:52;7;7;
49528;PMS5003;35423;37.320;-121.762;2023-12-22T05:20:17;10;10;
49528;PMS5003;35423;37.320;-121.762;2023-12-22T05:22:45;9;9;
49528;PMS5003;35423;37.320;-121.762;2023-12-22T05:25:12;21;21;
49528;PMS5003;35423;37.320;-121.762;2023-12-22T05:27:37;18;18;
49528;PMS5003;35423;37.320;-121.762;2023-12-22T05:30:03;15;15;
49528;PMS5003;35423;37.320;-121.762;2023-12-22T05:32:29;14;14;
49528;PMS5003;35423;37.320;-121.762;2023-12-22T05:34:57;4;4;
49528;PMS5003;35423;37.320;-121.762;2023-12-22T05:37:22;15;15;
49528;PMS5003;35423;37.320;-121.762;2023-12-22T05:39:48;11;11;
49528;PMS5003;35423;37.320;-121.762;2023-12-22T05:42:13;13;13;
49528;PMS5003;35423;37.320;-121.762;2023-12-22T05:44:39;17;17;
49528;PMS5003;35423;37.320;-121.762;2023-12-22T05:47:04;14;14;
49528;PMS5003;35423;37.320;-121.762;2023-12-22T05:49:30;18;18;
49528;PMS5003;35423;37.320;-121.762;2023-12-22T05:52:00;14;14;
49528;PMS5003;35423;37.320;-121.762;2023-12-22T05:54:26;25;25;
49528;PMS5003;35423;37.320;-121.762;2023-12-22T05:57:03;17;17;
49528;PMS5003;35423;37.320;-121.762;2023-12-22T05:59:29;19;19;
49528;PMS5003;35423;37.320;-121.762;2023-12-22T06:01:57;12;12;
49528;PMS5003;35423;37.320;-121.762;2023-12-22T06:04:23;23;23;
49528;PMS5003;35423;37.320;-121.762;2023-12-22T06:06:50;17;17;
49528;PMS5003;35423;37.320;-121.762;2023-12-22T06:09:17;17;17;
49528;PMS5003;35423;37.320;-121.762;2023-12-22T06:11:45;20;20;
49528;PMS5003;35423;37.320;-121.762;2023-12-22T06:14:11;11;11;
49528;PMS5003;35423;37.320;-121.762;2023-12-22T06:16:39;13;13;
49528;PMS5003;35423;37.320;-121.762;2023-12-22T06:19:04;16;16;
49528;PMS5003;35423;37.320;-121.762;2023-12-22T06:21:33;8;8;
49528;PMS5003;35423;37.320;-121.762;2023-12-22T06:23:59;8;8;
49528;PMS5003;35423;37.320;-121.762;2023-12-22T06:26:30;7;7;
49528;PMS5003;35423;37.320;-121.762;2023-12-22T06:28:57;8;8;
49528;PMS5003;35423;37.320;-121.762;2023-12-22T06:31:23;12;12;
49528;PMS5003;35423;37.320;-121.762;2023-12-22T06:33:50;15;15;
49528;PMS5003;35423;37.320;-121.762;2023-12-22T06:36:18;27;27;
49528;PMS5003;35423;37.320;-121.762;2023-12-22T06:38:43;17;17;
49528;PMS5003;35423;37.320;-121.762;2023-12-22T06:43:41;16;16;
49528;PMS5003;35423;37.320;-121.762;2023-12-22T06:48:34;16;16;
49528;PMS5003;35423;37.320;-121.762;2023-12-22T06:50:59;11;11;
49528;PMS5003;35423;37.320;-121.762;2023-12-22T06:53:27;9;9;
49528;PMS5003;35423;37.320;-121.762;2023-12-22T06:55:54;13;7;
49528;PMS5003;35423;37.320;-121.762;2023-12-22T06:58:25;11;11;
49528;PMS5003;35423;37.320;-121.762;2023-12-22T07:00:53;8;8;
49528;PMS5003;35423;37.320;-121.762;2023-12-22T07:03:18;0;0;
49528;PMS5003;35423;37.320;-121.762;2023-12-22T07:05:44;11;11;
49528;PMS5003;35423;37.320;-121.762;2023-12-22T07:08:12;5;5;
49528;PMS5003;35423;37.320;-121.762;2023-12-22T07:10:39;12;12;
49528;PMS5003;35423;37.320;-121.762;2023-12-22T07:13:06;8;8;
49528;PMS5003;35423;37.320;-121.762;2023-12-22T07:15:30;9;9;
49528;PMS5003;35423;37.320;-121.762;2023-12-22T07:17:57;18;7;
49528;PMS5003;35423;37.320;-121.762;2023-12-22T07:20:24;7;7;
49528;PMS5003;35423;37.320;-121.762;2023-12-22T07:22:52;9;9;
49528;PMS5003;35423;37.320;-121.762;2023-12-22T07:25:20;14;14;
49528;PMS5003;35423;37.320;-121.762;2023-12-22T07:27:49;17;17;
49528;PMS5003;35423;37.320;-121.762;2023-12-22T07:30:17;7;7;
49528;PMS5003;35423;37.320;-121.762;2023-12-22T07:32:44;12;12;
49528;PMS5003;35423;37.320;-121.762;2023-12-22T07:35:15;15;15;
49528;PMS5003;35423;37.320;-121.762;2023-12-22T07:37:39;10;10;
49528;PMS5003;35423;37.320;-121.762;2023-12-22T07:40:06;6;6;
49528;PMS5003;35423;37.320;-121.762;2023-12-22T07:42:33;5;5;
49528;PMS5003;35423;37.320;-121.762;2023-12-22T07:45:01;8;8;
49528;PMS5003;35423;37.320;-121.762;2023-12-22T07:47:30;8;8;
49528;PMS5003;35423;37.320;-121.762;2023-12-22T07:50:03;9;9;
49528;PMS5003;35423;37.320;-121.762;2023-12-22T07:52:33;3;3;
49528;PMS5003;35423;37.320;-121.762;2023-12-22T07:54:59;0;0;
49528;PMS5003;35423;37.320;-121.762;2023-12-22T07:57:26;3;3;
49528;PMS5003;35423;37.320;-121.762;2023-12-22T07:59:55;6;6;
49528;PMS5003;35423;37.320;-121.762;2023-12-22T08:02:26;5;5;
49528;PMS5003;35423;37.320;-121.762;2023-12-22T08:04:47;4;4;
49528;PMS5003;35423;37.320;-121.762;2023-12-22T08:07:13;9;9;
49528;PMS5003;35423;37.320;-121.762;2023-12-22T08:09:39;10;10;
49528;PMS5003;35423;37.320;-121.762;2023-12-22T08:12:08;7;7;
49528;PMS5003;35423;37.320;-121.762;2023-12-22T08:14:33;9;9;
49528;PMS5003;35423;37.320;-121.762;2023-12-22T08:17:00;4;4;
49528;PMS5003;35423;37.320;-121.762;2023-12-22T08:19:25;10;10;
49528;PMS5003;35423;37.320;-121.762;2023-12-22T08:21:52;8;8;
49528;PMS5003;35423;37.320;-121.762;2023-12-22T08:24:16;9;9;
49528;PMS5003;35423;37.320;-121.762;2023-12-22T08:26:41;8;8;
49528;PMS5003;35423;37.320;-121.762;2023-12-22T08:29:07;17;17;
49528;PMS5003;35423;37.320;-121.762;2023-12-22T08:31:38;11;11;
49528;PMS5003;35423;37.320;-121.762;2023-12-22T08:34:04;9;9;
49528;PMS5003;35423;37.320;-121.762;2023-12-22T08:36:31;13;13;
49528;PMS5003;35423;37.320;-121.762;2023-12-22T08:38:59;25;25;
49528;PMS5003;35423;37.320;-121.762;2023-12-22T08:41:29;23;7;
49528;PMS5003;35423;37.320;-121.762;2023-12-22T08:43:56;16;10;
49528;PMS5003;35423;37.320;-121.762;2023-12-22T08:46:22;4;4;
49528;PMS5003;35423;37.320;-121.762;2023-12-22T08:48:47;8;8;
49528;PMS5003;35423;37.320;-121.762;2023-12-22T08:51:12;6;6;
49528;PMS5003;35423;37.320;-121.762;2023-12-22T08:53:39;11;11;
49528;PMS5003;35423;37.320;-121.762;2023-12-22T08:56:05;9;9;
49528;PMS5003;35423;37.320;-121.762;2023-12-22T08:58:33;14;14;
49528;PMS5003;35423;37.320;-121.762;2023-12-22T09:01:01;8;8;
49528;PMS5003;35423;37.320;-121.762;2023-12-22T09:03:25;9;9;
49528;PMS5003;35423;37.320;-121.762;2023-12-22T09:05:51;4;4;
49528;PMS5003;35423;37.320;-121.762;2023-12-22T09:08:18;10;10;
49528;PMS5003;35423;37.320;-121.762;2023-12-22T09:10:44;5;5;
49528;PMS5003;35423;37.320;-121.762;2023-12-22T09:13:10;9;9;
49528;PMS5003;35423;37.320;-121.762;2023-12-22T09:15:36;15;12;
49528;PMS5003;35423;37.320;-121.762;2023-12-22T09:18:17;13;13;
49528;PMS5003;35423;37.320;-121.762;2023-12-22T09:20:45;15;15;
49528;PMS5003;35423;37.320;-121.762;2023-12-22T09:23:13;16;16;
49528;PMS5003;35423;37.320;-121.762;2023-12-22T09:25:43;12;12;
49528;PMS5003;35423;37.320;-121.762;2023-12-22T09:28:08;14;10;
49528;PMS5003;35423;37.320;-121.762;2023-12-22T09:30:39;11;11;
49528;PMS5003;35423;37.320;-121.762;2023-12-22T09:33:05;7;7;
49528;PMS5003;35423;37.320;-121.762;2023-12-22T09:35:32;11;11;
49528;PMS5003;35423;37.320;-121.762;2023-12-22T09:37:58;15;15;
49528;PMS5003;35423;37.320;-121.762;2023-12-22T09:40:26;16;16;
49528;PMS5003;35423;37.320;-121.762;2023-12-22T09:42:55;13;13;
49528;PMS5003;35423;37.320;-121.762;2023-12-22T09:45:24;8;8;
49528;PMS5003;35423;37.320;-121.762;2023-12-22T09:47:45;13;13;
49528;PMS5003;35423;37.320;-121.762;2023-12-22T09:50:11;17;17;
49528;PMS5003;35423;37.320;-121.762;2023-12-22T09:52:37;5;5;
49528;PMS5003;35423;37.320;-121.762;2023-12-22T09:55:06;6;6;
49528;PMS5003;35423;37.320;-121.762;2023-12-22T09:57:30;14;14;
49528;PMS5003;35423;37.320;-121.762;2023-12-22T09:59:59;9;9;
49528;PMS5003;35423;37.320;-121.762;2023-12-22T10:02:25;17;17;
49528;PMS5003;35423;37.320;-121.762;2023-12-22T10:04:51;15;15;
49528;PMS5003;35423;37.320;-121.762;2023-12-22T10:07:17;18;18;
49528;PMS5003;35423;37.320;-121.762;2023-12-22T10:09:46;4;4;
49528;PMS5003;35423;37.320;-121.762;2023-12-22T10:12:18;11;11;
49528;PMS5003;35423;37.320;-121.762;2023-12-22T10:14:43;13;13;
49528;PMS5003;35423;37.320;-121.762;2023-12-22T10:17:12;8;8;
49528;PMS5003;35423;37.320;-121.762;2023-12-22T10:19:38;21;21;
49528;PMS5003;35423;37.320;-121.762;2023-12-22T10:22:04;16;16;
49528;PMS5003;35423;37.320;-121.762;2023-12-22T10:26:56;13;7;
49528;PMS5003;35423;37.320;-121.762;2023-12-22T10:29:21;15;15;
49528;PMS5003;35423;37.320;-121.762;2023-12-22T10:31:49;7;7;
49528;PMS5003;35423;37.320;-121.762;2023-12-22T10:34:15;11;11;
49528;PMS5003;35423;37.320;-121.762;2023-12-22T10:36:41;22;15;
49528;PMS5003;35423;37.320;-121.762;2023-12-22T10:39:08;10;10;
49528;PMS5003;35423;37.320;-121.762;2023-12-22T10:41:36;13;13;
49528;PMS5003;35423;37.320;-121.762;2023-12-22T10:44:02;16;16;
49528;PMS5003;35423;37.320;-121.762;2023-12-22T10:46:27;13;13;
49528;PMS5003;35423;37.320;-121.762;2023-12-22T10:48:59;12;12;
49528;PMS5003;35423;37.320;-121.762;2023-12-22T10:51:24;26;21;
49528;PMS5003;35423;37.320;-121.762;2023-12-22T10:53:52;12;12;
49528;PMS5003;35423;37.320;-121.762;2023-12-22T10:56:23;20;20;
49528;PMS5003;35423;37.320;-121.762;2023-12-22T10:58:49;11;11;
49528;PMS5003;35423;37.320;-121.762;2023-12-22T11:01:15;23;23;
49528;PMS5003;35423;37.320;-121.762;2023-12-22T11:03:43;5;5;
49528;PMS5003;35423;37.320;-121.762;2023-12-22T11:06:09;11;11;
49528;PMS5003;35423;37.320;-121.762;2023-12-22T11:08:35;25;14;
49528;PMS5003;35423;37.320;-121.762;2023-12-22T11:11:04;9;9;
49528;PMS5003;35423;37.320;-121.762;2023-12-22T11:13:29;16;16;
49528;PMS5003;35423;37.320;-121.762;2023-12-22T11:15:56;20;20;
49528;PMS5003;35423;37.320;-121.762;2023-12-22T11:18:23;17;17;
49528;PMS5003;35423;37.320;-121.762;2023-12-22T11:20:48;12;12;
49528;PMS5003;35423;37.320;-121.762;2023-12-22T11:23:14;21;17;
49528;PMS5003;35423;37.320;-121.762;2023-12-22T11:25:40;11;11;
49528;PMS5003;35423;37.320;-121.762;2023-12-22T11:28:05;13;13;
49528;PMS5003;35423;37.320;-121.762;2023-12-22T11:30:33;11;11;
49528;PMS5003;35423;37.320;-121.762;2023-12-22T11:32:59;19;18;
49528;PMS5003;35423;37.320;-121.762;2023-12-22T11:35:27;13;13;
49528;PMS5003;35423;37.320;-121.762;2023-12-22T11:37:55;12;12;
49528;PMS5003;35423;37.320;-121.762;2023-12-22T11:40:22;12;12;
49528;PMS5003;35423;37.320;-121.762;2023-12-22T11:42:49;21;21;
49528;PMS5003;35423;37.320;-121.762;2023-12-22T11:45:13;11;11;
49528;PMS5003;35423;37.320;-121.762;2023-12-22T11:47:41;14;14;
49528;PMS5003;35423;37.320;-121.762;2023-12-22T11:52:37;24;14;
49528;PMS5003;35423;37.320;-121.762;2023-12-22T11:55:03;19;19;
49528;PMS5003;35423;37.320;-121.762;2023-12-22T11:57:32;16;16;
49528;PMS5003;35423;37.320;-121.762;2023-12-22T11:59:56;16;16;
49528;PMS5003;35423;37.320;-121.762;2023-12-22T12:02:23;12;12;
49528;PMS5003;35423;37.320;-121.762;2023-12-22T12:04:52;21;21;
49528;PMS5003;35423;37.320;-121.762;2023-12-22T12:09:45;29;18;
49528;PMS5003;35423;37.320;-121.762;2023-12-22T12:12:09;20;20;
49528;PMS5003;35423;37.320;-121.762;2023-12-22T12:14:37;32;32;
49528;PMS5003;35423;37.320;-121.762;2023-12-22T12:17:05;34;32;
49528;PMS5003;35423;37.320;-121.762;2023-12-22T12:19:27;28;28;
49528;PMS5003;35423;37.320;-121.762;2023-12-22T12:21:59;26;19;
49528;PMS5003;35423;37.320;-121.762;2023-12-22T12:24:36;28;28;
49528;PMS5003;35423;37.320;-121.762;2023-12-22T12:27:02;26;19;
49528;PMS5003;35423;37.320;-121.762;2023-12-22T12:29:22;31;31;
49528;PMS5003;35423;37.320;-121.762;2023-12-22T12:32:07;27;25;
49528;PMS5003;35423;37.320;-121.762;2023-12-22T12:34:30;22;22;
49528;PMS5003;35423;37.320;-121.762;2023-12-22T12:36:50;34;34;
49528;PMS5003;35423;37.320;-121.762;2023-12-22T12:39:15;28;28;
49528;PMS5003;35423;37.320;-121.762;2023-12-22T12:41:41;31;31;
49528;PMS5003;35423;37.320;-121.762;2023-12-22T12:44:07;18;18;
49528;PMS5003;35423;37.320;-121.762;2023-12-22T12:46:39;19;19;
49528;PMS5003;35423;37.320;-121.762;2023-12-22T12:49:03;32;28;
49528;PMS5003;35423;37.320;-121.762;2023-12-22T12:51:26;22;22;
49528;PMS5003;35423;37.320;-121.762;2023-12-22T12:53:52;25;25;
49528;PMS5003;35423;37.320;-121.762;2023-12-22T12:56:18;34;22;
49528;PMS5003;35423;37.320;-121.762;2023-12-22T12:58:45;22;22;
49528;PMS5003;35423;37.320;-121.762;2023-12-22T13:01:11;21;21;
49528;PMS5003;35423;37.320;-121.762;2023-12-22T13:08:31;44;40;
49528;PMS5003;35423;37.320;-121.762;2023-12-22T13:11:00;23;23;
49528;PMS5003;35423;37.320;-121.762;2023-12-22T13:13:23;42;30;
49528;PMS5003;35423;37.320;-121.762;2023-12-22T13:16:07;20;20;
49528;PMS5003;35423;37.320;-121.762;2023-12-22T13:18:32;17;17;
49528;PMS5003;35423;37.320;-121.762;2023-12-22T13:21:00;13;13;
49528;PMS5003;35423;37.320;-121.762;2023-12-22T13:23:26;9;9;
49528;PMS5003;35423;37.320;-121.762;2023-12-22T13:25:52;14;14;
49528;PMS5003;35423;37.320;-121.762;2023-12-22T13:28:25;6;6;
49528;PMS5003;35423;37.320;-121.762;2023-12-22T13:30:48;7;7;
49528;PMS5003;35423;37.320;-121.762;2023-12-22T13:33:16;4;4;
49528;PMS5003;35423;37.320;-121.762;2023-12-22T13:35:41;7;7;
49528;PMS5003;35423;37.320;-121.762;2023-12-22T13:38:16;14;6;
49528;PMS5003;35423;37.320;-121.762;2023-12-22T13:40:44;7;7;
49528;PMS5003;35423;37.320;-121.762;2023-12-22T13:43:09;4;4;
49528;PMS5003;35423;37.320;-121.762;2023-12-22T13:45:37;13;13;
49528;PMS5003;35423;37.320;-121.762;2023-12-22T13:48:04;4;4;
49528;PMS5003;35423;37.320;-121.762;2023-12-22T13:50:31;4;4;
49528;PMS5003;35423;37.320;-121.762;2023-12-22T13:52:56;10;10;
49528;PMS5003;35423;37.320;-121.762;2023-12-22T13:55:21;9;9;
49528;PMS5003;35423;37.320;-121.762;2023-12-22T13:57:46;18;7;
49528;PMS5003;35423;37.320;-121.762;2023-12-22T14:02:40;5;5;
49528;PMS5003;35423;37.320;-121.762;2023-12-22T14:05:07;5;5;
49528;PMS5003;35423;37.320;-121.762;2023-12-22T14:07:32;11;11;
49528;PMS5003;35423;37.320;-121.762;2023-12-22T14:12:27;11;11;
49528;PMS5003;35423;37.320;-121.762;2023-12-22T14:15:00;6;6;
49528;PMS5003;35423;37.320;-121.762;2023-12-22T14:17:25;18;18;
49528;PMS5003;35423;37.320;-121.762;2023-12-22T14:19:51;14;14;
49528;PMS5003;35423;37.320;-121.762;2023-12-22T14:22:19;14;14;
49528;PMS5003;35423;37.320;-121.762;2023-12-22T14:24:44;16;16;
49528;PMS5003;35423;37.320;-121.762;2023-12-22T14:27:12;9;9;
49528;PMS5003;35423;37.320;-121.762;2023-12-22T14:29:37;6;6;
49528;PMS5003;35423;37.320;-121.762;2023-12-22T14:32:05;17;17;
49528;PMS5003;35423;37.320;-121.762;2023-12-22T14:34:31;11;11;
49528;PMS5003;35423;37.320;-121.762;2023-12-22T14:36:58;16;16;
49528;PMS5003;35423;37.320;-121.762;2023-12-22T14:39:25;9;9;
49528;PMS5003;35423;37.320;-121.762;2023-12-22T14:42:00;1;1;
49528;PMS5003;35423;37.320;-121.762;2023-12-22T14:44:24;8;8;
49528;PMS5003;35423;37.320;-121.762;2023-12-22T14:46:53;6;6;
49528;PMS5003;35423;37.320;-121.762;2023-12-22T14:49:21;7;7;
49528;PMS5003;35423;37.320;-121.762;2023-12-22T14:51:52;9;9;
49528;PMS5003;35423;37.320;-121.762;2023-12-22T14:54:20;6;6;
49528;PMS5003;35423;37.320;-121.762;2023-12-22T14:56:45;9;9;
49528;PMS5003;35423;37.320;-121.762;2023-12-22T14:59:11;7;7;
49528;PMS5003;35423;37.320;-121.762;2023-12-22T15:01:39;6;6;
49528;PMS5003;35423;37.320;-121.762;2023-12-22T15:04:06;6;6;
49528;PMS5003;35423;37.320;-121.762;2023-12-22T15:06:37;3;3;
49528;PMS5003;35423;37.320;-121.762;2023-12-22T15:09:05;21;6;
49528;PMS5003;35423;37.320;-121.762;2023-12-22T15:14:05;8;8;
49528;PMS5003;35423;37.320;-121.762;2023-12-22T15:16:31;15;15;
49528;PMS5003;35423;37.320;-121.762;2023-12-22T15:18:57;15;15;
49528;PMS5003;35423;37.320;-121.762;2023-12-22T15:21:26;12;12;
49528;PMS5003;35423;37.320;-121.762;2023-12-22T15:23:52;12;12;
49528;PMS5003;35423;37.320;-121.762;2023-12-22T15:26:20;30;18;
49528;PMS5003;35423;37.320;-121.762;2023-12-22T15:28:59;14;14;
49528;PMS5003;35423;37.320;-121.762;2023-12-22T15:31:25;14;14;
49528;PMS5003;35423;37.320;-121.762;2023-12-22T15:33:51;25;25;
49528;PMS5003;35423;37.320;-121.762;2023-12-22T15:36:17;12;12;
49528;PMS5003;35423;37.320;-121.762;2023-12-22T15:38:43;21;21;
49528;PMS5003;35423;37.320;-121.762;2023-12-22T15:41:08;27;27;
49528;PMS5003;35423;37.320;-121.762;2023-12-22T15:43:34;26;19;
49528;PMS5003;35423;37.320;-121.762;2023-12-22T15:46:03;23;23;
49528;PMS5003;35423;37.320;-121.762;2023-12-22T15:48:26;25;20;
49528;PMS5003;35423;37.320;-121.762;2023-12-22T15:50:53;24;24;
49528;PMS5003;35423;37.320;-121.762;2023-12-22T15:53:20;9;9;
49528;PMS5003;35423;37.320;-121.762;2023-12-22T15:55:48;12;12;
49528;PMS5003;35423;37.320;-121.762;2023-12-22T15:58:16;12;12;
49528;PMS5003;35423;37.320;-121.762;2023-12-22T16:00:45;3;3;
49528;PMS5003;35423;37.320;-121.762;2023-12-22T16:03:13;22;10;
49528;PMS5003;35423;37.320;-121.762;2023-12-22T16:05:43;6;6;
49528;PMS5003;35423;37.320;-121.762;2023-12-22T16:08:09;5;5;
49528;PMS5003;35423;37.320;-121.762;2023-12-22T16:10:34;12;12;